Malta, Idaho
Current Conditions -  °F | °C
As of 4:53 AM on Saturday 20 Dec 2014 (Local Time) from KBYI Reporting Station
Overcast Overcast  
Wind Chill: 30°   Ceiling: 8000
Heat Index: 36°   Visibility: 10mi
Dew Point: 32°   Wind: 7mph
Humidity: 86%   Direction: 200°SSW
Pressure: 30.06"   Gusts: NA
Location:  42.31°N, 113.37°W
Report Text: KBYI 201153Z AUTO 20006KT 10SM SCT037 OVC080 02/00 A3006 RMK AO2 SLP188 70010 T00220000 10033 20011 58006
Loading
Personal Weather Stations






























Interactive Weather Map New forecast layout! Learn more

10-Day Weather Forecast

Advertisements
Track Severe Weather on mobile